createdAt,value
2019-01-25T00:01:06.158Z,99508.31
2019-01-25T00:03:34.757Z,99505.83
2019-01-25T00:06:01.901Z,99507.17
2019-01-25T00:08:29.081Z,99504.55
2019-01-25T00:10:56.079Z,99504.20
2019-01-25T00:13:23.021Z,99502.83
2019-01-25T00:15:50.013Z,99507.52
2019-01-25T00:18:17.269Z,99508.03
2019-01-25T00:20:44.618Z,99507.42
2019-01-25T00:23:11.610Z,99513.45
2019-01-25T00:25:38.930Z,99510.57
2019-01-25T00:28:06.311Z,99507.41
2019-01-25T00:30:33.560Z,99507.76
2019-01-25T00:33:00.444Z,99514.25
2019-01-25T00:35:27.625Z,99514.78
2019-01-25T00:37:54.518Z,99505.17
2019-01-25T00:40:21.843Z,99518.13
2019-01-25T00:42:49.185Z,99512.86
2019-01-25T00:45:16.535Z,99512.64
2019-01-25T00:47:43.445Z,99517.17
2019-01-25T00:50:10.429Z,99520.13
2019-01-25T00:52:37.330Z,99520.37
2019-01-25T00:55:04.297Z,99520.23
2019-01-25T00:57:31.266Z,99525.80
2019-01-25T00:59:58.170Z,99522.91
2019-01-25T01:02:25.084Z,99519.86
2019-01-25T01:04:52.429Z,99518.42
2019-01-25T01:07:19.381Z,99520.81
2019-01-25T01:09:46.350Z,99524.70
2019-01-25T01:12:13.244Z,99527.14
2019-01-25T01:14:40.394Z,99530.53
2019-01-25T01:17:07.618Z,99532.67
2019-01-25T01:19:34.873Z,99534.02
2019-01-25T01:22:02.093Z,99532.97
2019-01-25T01:24:29.245Z,99533.02
2019-01-25T01:26:56.485Z,99536.95
2019-01-25T01:29:23.376Z,99539.19
2019-01-25T01:31:50.305Z,99536.90
2019-01-25T01:34:17.263Z,99541.28
2019-01-25T01:36:44.230Z,99543.73
2019-01-25T01:39:11.178Z,99542.36
2019-01-25T01:41:38.143Z,99544.91
2019-01-25T01:44:05.083Z,99553.03
2019-01-25T01:46:31.981Z,99547.62
2019-01-25T01:48:59.201Z,99552.69
2019-01-25T01:51:26.178Z,99550.16
2019-01-25T01:53:53.365Z,99546.61
2019-01-25T01:56:20.939Z,99550.93
2019-01-25T01:58:48.142Z,99544.46
2019-01-25T02:01:15.366Z,99546.05
2019-01-25T02:03:42.242Z,99551.27
2019-01-25T02:06:09.538Z,99549.05
2019-01-25T02:08:36.804Z,99551.11
2019-01-25T02:11:04.048Z,99557.16
2019-01-25T02:13:31.007Z,99560.25
2019-01-25T02:15:58.334Z,99554.27
2019-01-25T02:18:25.686Z,99558.30
2019-01-25T02:20:52.629Z,99554.71
2019-01-25T02:23:19.824Z,99553.38
2019-01-25T02:25:47.010Z,99558.30
2019-01-25T02:28:13.902Z,99551.41
2019-01-25T02:30:41.097Z,99550.59
2019-01-25T02:33:07.994Z,99558.86
2019-01-25T02:35:35.162Z,99553.61
2019-01-25T02:38:02.125Z,99553.56
2019-01-25T02:40:29.002Z,99549.25
2019-01-25T02:42:55.950Z,99551.69
2019-01-25T02:45:22.913Z,99549.10
2019-01-25T02:47:49.880Z,99550.06
2019-01-25T02:50:19.572Z,99542.83
2019-01-25T02:52:46.837Z,99543.02
2019-01-25T02:55:13.783Z,99544.06
2019-01-25T02:57:40.769Z,99553.84
2019-01-25T03:00:08.003Z,99556.42
2019-01-25T03:02:35.345Z,99559.01
2019-01-25T03:05:02.572Z,99553.80
2019-01-25T03:07:30.700Z,99553.31
2019-01-25T03:09:57.944Z,99556.42
2019-01-25T03:12:24.893Z,99557.96
2019-01-25T03:14:52.234Z,99557.96
2019-01-25T03:17:19.204Z,99557.96
2019-01-25T03:19:46.416Z,99556.81
2019-01-25T03:22:13.574Z,99557.96
2019-01-25T03:24:40.807Z,99562.23
2019-01-25T03:27:07.768Z,99558.54
2019-01-25T03:29:34.697Z,99564.66
2019-01-25T03:32:01.709Z,99562.36
2019-01-25T03:34:28.875Z,99560.11
2019-01-25T03:36:55.750Z,99560.93
2019-01-25T03:39:22.997Z,99565.81
2019-01-25T03:41:49.946Z,99561.94
2019-01-25T03:44:16.895Z,99560.55
2019-01-25T03:46:43.760Z,99565.70
2019-01-25T03:49:12.335Z,99568.49
2019-01-25T03:51:39.385Z,99560.02
2019-01-25T03:54:06.398Z,99565.53
2019-01-25T03:56:33.634Z,99557.30
2019-01-25T03:59:00.908Z,99557.01
2019-01-25T04:01:27.837Z,99560.16
2019-01-25T04:03:54.745Z,99557.77
2019-01-25T04:06:21.794Z,99564.13
2019-01-25T04:08:49.024Z,99561.44
2019-01-25T04:11:16.265Z,99562.34
2019-01-25T04:13:43.222Z,99556.89
2019-01-25T04:16:10.094Z,99560.49
2019-01-25T04:18:37.036Z,99556.42
2019-01-25T04:21:04.253Z,99555.95
2019-01-25T04:23:31.228Z,99553.42
2019-01-25T04:25:58.234Z,99553.72
2019-01-25T04:28:25.408Z,99557.47
2019-01-25T04:30:52.294Z,99555.86
2019-01-25T04:33:19.274Z,99553.66
2019-01-25T04:35:46.539Z,99554.55
2019-01-25T04:38:13.501Z,99562.78
2019-01-25T04:40:40.412Z,99558.13
2019-01-25T04:43:07.661Z,99564.75
2019-01-25T04:45:34.677Z,99565.17
2019-01-25T04:48:01.651Z,99565.30
2019-01-25T04:50:28.602Z,99570.45
2019-01-25T04:52:55.579Z,99568.06
2019-01-25T04:55:23.126Z,99573.42
2019-01-25T04:57:50.394Z,99582.03
2019-01-25T05:00:17.374Z,99582.09
2019-01-25T05:02:44.712Z,99577.95
2019-01-25T05:05:11.960Z,99572.87
2019-01-25T05:07:39.184Z,99581.81
2019-01-25T05:10:06.173Z,99581.48
2019-01-25T05:12:33.475Z,99577.39
2019-01-25T05:15:00.441Z,99586.14
2019-01-25T05:17:27.489Z,99580.99
2019-01-25T05:19:54.942Z,99574.72
2019-01-25T05:22:21.891Z,99582.28
2019-01-25T05:24:48.832Z,99585.05
2019-01-25T05:27:15.739Z,99581.31
2019-01-25T05:29:42.652Z,99587.40
2019-01-25T05:32:09.682Z,99582.42
2019-01-25T05:34:36.760Z,99584.91
2019-01-25T05:37:03.818Z,99583.23
2019-01-25T05:39:30.742Z,99590.49
2019-01-25T05:41:57.662Z,99591.50
2019-01-25T05:44:24.726Z,99594.09
2019-01-25T05:46:51.711Z,99595.83
2019-01-25T05:49:19.031Z,99594.89
2019-01-25T05:51:45.991Z,99588.70
2019-01-25T05:54:13.194Z,99586.77
2019-01-25T05:56:40.597Z,99592.34
2019-01-25T05:59:07.574Z,99583.80
2019-01-25T06:01:34.926Z,99592.78
2019-01-25T06:04:02.184Z,99595.41
2019-01-25T06:06:29.554Z,99595.37
2019-01-25T06:08:57.551Z,99597.98
2019-01-25T06:11:24.462Z,99597.27
2019-01-25T06:13:51.436Z,99590.77
2019-01-25T06:16:18.395Z,99603.55
2019-01-25T06:18:45.283Z,99600.09
2019-01-25T06:21:12.494Z,99604.11
2019-01-25T06:23:40.673Z,99599.91
2019-01-25T06:26:08.023Z,99605.86
2019-01-25T06:28:35.283Z,99606.56
2019-01-25T06:31:02.274Z,99605.02
2019-01-25T06:33:31.807Z,99610.14
2019-01-25T06:35:59.066Z,99611.35
2019-01-25T06:38:26.314Z,99618.48
2019-01-25T06:40:53.569Z,99625.84
2019-01-25T06:43:20.832Z,99629.55
2019-01-25T06:45:47.792Z,99631.02
2019-01-25T06:48:14.772Z,99631.33
2019-01-25T06:50:41.768Z,99630.13
2019-01-25T06:53:08.775Z,99630.19
2019-01-25T06:55:35.748Z,99628.41
2019-01-25T06:58:02.673Z,99639.05
2019-01-25T07:00:30.044Z,99639.41
2019-01-25T07:02:56.991Z,99642.94
2019-01-25T07:05:24.009Z,99649.31
2019-01-25T07:07:53.661Z,99647.85
2019-01-25T07:10:20.611Z,99653.39
2019-01-25T07:12:50.575Z,99650.57
2019-01-25T07:15:17.782Z,99653.93
2019-01-25T07:17:44.736Z,99648.45
2019-01-25T07:20:18.189Z,99647.47
2019-01-25T07:22:40.692Z,99648.58
2019-01-25T07:25:07.697Z,99655.33
2019-01-25T07:27:35.109Z,99655.25
2019-01-25T07:30:02.100Z,99660.59
2019-01-25T07:32:29.272Z,99664.54
2019-01-25T07:34:56.523Z,99666.83
2019-01-25T07:37:23.480Z,99668.61
2019-01-25T07:39:50.813Z,99672.23
2019-01-25T07:42:20.857Z,99666.37
2019-01-25T07:44:48.009Z,99670.83
2019-01-25T07:47:14.968Z,99672.88
2019-01-25T07:49:42.208Z,99680.98
2019-01-25T07:52:09.163Z,99685.10
2019-01-25T07:55:23.812Z,99690.52
2019-01-25T07:57:06.659Z,99690.89
2019-01-25T07:59:33.585Z,99693.20
2019-01-25T08:02:01.024Z,99697.06
2019-01-25T08:04:28.272Z,99704.19
2019-01-25T08:06:55.235Z,99708.86
2019-01-25T08:09:22.229Z,99708.96
2019-01-25T08:11:51.545Z,99709.06
2019-01-25T08:14:18.517Z,99713.73
2019-01-25T08:16:45.822Z,99717.14
2019-01-25T08:19:12.812Z,99721.03
2019-01-25T08:21:39.796Z,99720.50
2019-01-25T08:24:06.768Z,99723.12
2019-01-25T08:26:33.770Z,99719.94
2019-01-25T08:29:00.698Z,99724.27
2019-01-25T08:31:27.736Z,99728.02
2019-01-25T08:33:54.942Z,99724.72
2019-01-25T08:36:22.030Z,99723.77
2019-01-25T08:38:49.282Z,99721.64
2019-01-25T08:41:16.292Z,99718.64
2019-01-25T08:43:43.237Z,99717.05
2019-01-25T08:46:10.191Z,99718.39
2019-01-25T08:48:39.296Z,99715.61
2019-01-25T08:51:07.549Z,99714.36
2019-01-25T08:53:34.640Z,99711.72
2019-01-25T08:56:01.623Z,99712.92
2019-01-25T08:58:28.597Z,99705.73
2019-01-25T09:00:55.541Z,99711.70
2019-01-25T09:03:22.593Z,99705.33
2019-01-25T09:05:50.950Z,99707.80
2019-01-25T09:08:18.175Z,99710.96
2019-01-25T09:10:46.548Z,99715.16
2019-01-25T09:13:13.456Z,99711.53
2019-01-25T09:15:40.734Z,99709.09
2019-01-25T09:18:08.011Z,99713.12
2019-01-25T09:20:34.879Z,99717.94
2019-01-25T09:23:02.073Z,99722.27
2019-01-25T09:25:29.034Z,99721.30
2019-01-25T09:27:56.309Z,99717.28
2019-01-25T09:30:23.526Z,99680.95
2019-01-25T09:32:50.552Z,99724.36
2019-01-25T09:35:17.449Z,99725.45
2019-01-25T09:37:44.481Z,99729.47
2019-01-25T09:40:11.732Z,99733.92
2019-01-25T09:42:38.702Z,99728.84
2019-01-25T09:45:05.742Z,99722.91
2019-01-25T09:47:39.388Z,99723.45
2019-01-25T09:50:06.421Z,99722.08
2019-01-25T09:52:33.731Z,99720.68
2019-01-25T09:55:00.880Z,99726.61
2019-01-25T09:57:27.772Z,99728.59
2019-01-25T09:59:55.098Z,99728.61
2019-01-25T10:02:22.291Z,99724.43
2019-01-25T10:04:49.256Z,99724.77
2019-01-25T10:07:16.133Z,99723.83
2019-01-25T10:09:43.135Z,99727.94
2019-01-25T10:12:10.357Z,99726.65
2019-01-25T10:14:37.344Z,99722.46
2019-01-25T10:17:04.309Z,99718.64
2019-01-25T10:19:31.168Z,99711.22
2019-01-25T10:21:58.307Z,99712.92
2019-01-25T10:24:25.544Z,99708.52
2019-01-25T10:26:52.709Z,99712.84
2019-01-25T10:29:19.971Z,99701.84
2019-01-25T10:31:47.601Z,99700.97
2019-01-25T10:34:14.993Z,99698.56
2019-01-25T10:36:42.223Z,99700.11
2019-01-25T10:39:09.462Z,99697.12
2019-01-25T10:41:36.477Z,99697.94
2019-01-25T10:44:03.748Z,99696.45
2019-01-25T10:46:30.679Z,99699.30
2019-01-25T10:48:57.601Z,99686.42
2019-01-25T10:51:24.528Z,99698.54
2019-01-25T10:53:51.486Z,99706.12
2019-01-25T10:56:18.488Z,99696.81
2019-01-25T10:58:45.767Z,99695.09
2019-01-25T11:01:12.713Z,99697.63
2019-01-25T11:03:39.970Z,99683.55
2019-01-25T11:06:07.230Z,99689.66
2019-01-25T11:08:34.583Z,99685.44
2019-01-25T11:11:01.529Z,99685.09
2019-01-25T11:13:28.783Z,99685.41
2019-01-25T11:15:55.681Z,99690.58
2019-01-25T11:18:23.136Z,99681.79
2019-01-25T11:20:50.485Z,99680.16
2019-01-25T11:23:17.845Z,99669.44
2019-01-25T11:25:44.789Z,99670.58
2019-01-25T11:28:12.071Z,99670.22
2019-01-25T11:30:39.362Z,99670.19
2019-01-25T11:33:06.370Z,99668.71
2019-01-25T11:35:36.150Z,99667.79
2019-01-25T11:38:02.221Z,99664.05
2019-01-25T11:40:29.147Z,99667.19
2019-01-25T11:42:56.515Z,99665.83
2019-01-25T11:45:23.797Z,99668.84
2019-01-25T11:47:50.825Z,99671.64
2019-01-25T11:50:17.873Z,99669.88
2019-01-25T11:52:46.227Z,99666.70
2019-01-25T11:55:13.536Z,99664.33
2019-01-25T11:57:41.220Z,99669.89
2019-01-25T12:00:08.514Z,99673.13
2019-01-25T12:02:35.822Z,99669.58
2019-01-25T12:05:03.184Z,99667.59
2019-01-25T12:07:30.275Z,99674.59
2019-01-25T12:09:57.253Z,99670.73
2019-01-25T12:12:24.211Z,99678.41
2019-01-25T12:14:52.588Z,99676.20
2019-01-25T12:17:19.600Z,99666.05
2019-01-25T12:19:46.542Z,99672.38
2019-01-25T12:22:13.855Z,99678.41
2019-01-25T12:24:42.748Z,99677.69
2019-01-25T12:27:13.219Z,99673.06
2019-01-25T12:29:38.535Z,99672.07
2019-01-25T12:32:05.767Z,99667.55
2019-01-25T12:34:39.548Z,99665.23
2019-01-25T12:37:06.533Z,99663.63
2019-01-25T12:39:34.078Z,99664.37
2019-01-25T12:42:01.467Z,99664.88
2019-01-25T12:44:28.781Z,99659.05
2019-01-25T12:46:55.843Z,99649.91
2019-01-25T12:49:22.998Z,99644.97
2019-01-25T12:51:49.979Z,99644.23
2019-01-25T12:54:18.072Z,99643.05
2019-01-25T12:56:45.025Z,99646.44
2019-01-25T12:59:11.987Z,99641.13
2019-01-25T13:01:40.593Z,99635.56
2019-01-25T13:04:07.603Z,99632.14
2019-01-25T13:06:34.605Z,99629.18
2019-01-25T13:09:01.880Z,99623.27
2019-01-25T13:11:30.483Z,99620.48
2019-01-25T13:13:58.601Z,99616.41
2019-01-25T13:16:25.891Z,99614.86
2019-01-25T13:18:54.557Z,99614.86
2019-01-25T13:21:21.618Z,99616.77
2019-01-25T13:23:53.770Z,99618.05
2019-01-25T13:26:20.712Z,99612.53
2019-01-25T13:28:48.108Z,99608.59
2019-01-25T13:31:15.436Z,99612.02
2019-01-25T13:33:42.474Z,99613.61
2019-01-25T13:36:09.469Z,99617.70
2019-01-25T13:38:36.426Z,99615.97
2019-01-25T13:41:03.893Z,99626.55
2019-01-25T13:43:30.841Z,99621.82
2019-01-25T13:45:57.841Z,99616.58
2019-01-25T13:48:32.689Z,99617.41
2019-01-25T13:50:59.997Z,99617.59
2019-01-25T13:53:27.018Z,99620.13
2019-01-25T13:55:54.073Z,99620.87
2019-01-25T13:58:21.139Z,99620.09
2019-01-25T14:00:48.282Z,99610.48
2019-01-25T14:03:15.418Z,99612.05
2019-01-25T14:05:42.437Z,99618.91
2019-01-25T14:08:09.589Z,99613.27
2019-01-25T14:10:36.937Z,99625.16
2019-01-25T14:13:03.970Z,99623.30
2019-01-25T14:15:30.969Z,99626.91
2019-01-25T14:17:58.287Z,99624.38
2019-01-25T14:20:27.148Z,99626.80
2019-01-25T14:22:54.559Z,99627.64
2019-01-25T14:25:21.874Z,99632.35
2019-01-25T14:27:49.217Z,99629.30
2019-01-25T14:30:19.201Z,99632.22
2019-01-25T14:32:46.667Z,99629.44
2019-01-25T14:35:13.621Z,99629.44
2019-01-25T14:37:41.877Z,99627.55
2019-01-25T14:40:09.185Z,99633.94
2019-01-25T14:42:36.115Z,99628.88
2019-01-25T14:45:03.464Z,99627.80
2019-01-25T14:47:30.766Z,99625.55
2019-01-25T14:49:57.780Z,99615.27
2019-01-25T14:52:27.135Z,99617.72
2019-01-25T14:54:53.887Z,99617.52
2019-01-25T14:57:21.312Z,99623.83
2019-01-25T14:59:48.281Z,99624.89
2019-01-25T15:02:15.578Z,99621.26
2019-01-25T15:04:44.093Z,99617.14
2019-01-25T15:07:11.011Z,99618.15
2019-01-25T15:09:38.070Z,99621.38
2019-01-25T15:12:05.126Z,99625.80
2019-01-25T15:14:32.502Z,99636.25
2019-01-25T15:16:59.424Z,99644.23
2019-01-25T15:19:29.305Z,99642.64
2019-01-25T15:22:02.542Z,99649.85
2019-01-25T15:24:29.495Z,99645.35
2019-01-25T15:26:56.510Z,99639.05
2019-01-25T15:29:23.921Z,99641.97
2019-01-25T15:31:51.503Z,99639.64
2019-01-25T15:34:18.428Z,99640.80
2019-01-25T15:36:45.395Z,99636.51
2019-01-25T15:39:14.311Z,99636.22
2019-01-25T15:41:41.781Z,99635.72
2019-01-25T15:44:10.533Z,99629.98
2019-01-25T15:46:37.898Z,99630.36
2019-01-25T15:49:05.331Z,99633.47
2019-01-25T15:51:34.850Z,99630.72
2019-01-25T15:54:03.851Z,99635.36
2019-01-25T15:56:34.400Z,99624.56
2019-01-25T15:59:00.605Z,99623.83
2019-01-25T16:01:27.906Z,99619.21
2019-01-25T16:03:55.433Z,99614.17
2019-01-25T16:06:22.776Z,99620.77
2019-01-25T16:08:49.929Z,99617.47
2019-01-25T16:11:16.975Z,99614.98
2019-01-25T16:13:44.035Z,99620.55
2019-01-25T16:16:11.054Z,99623.70
2019-01-25T16:18:38.354Z,99623.31
2019-01-25T16:21:05.366Z,99620.14
2019-01-25T16:23:32.306Z,99619.64
2019-01-25T16:25:59.290Z,99625.90
2019-01-25T16:28:35.973Z,99627.19
2019-01-25T16:31:02.196Z,99625.86
2019-01-25T16:33:29.655Z,99616.02
2019-01-25T16:35:56.999Z,99617.84
2019-01-25T16:38:24.005Z,99614.64
2019-01-25T16:40:51.595Z,99621.91
2019-01-25T16:43:18.459Z,99622.03
2019-01-25T16:45:48.400Z,99624.22
2019-01-25T16:48:16.217Z,99622.58
2019-01-25T16:50:44.859Z,99619.33
2019-01-25T16:53:13.783Z,99626.66
2019-01-25T16:55:44.516Z,99619.46
2019-01-25T16:58:17.282Z,99622.42
2019-01-25T17:00:44.249Z,99614.63
2019-01-25T17:03:11.322Z,99612.86
2019-01-25T17:05:41.319Z,99605.77
2019-01-25T17:08:08.814Z,99608.88
2019-01-25T17:10:37.866Z,99618.31
2019-01-25T17:13:04.506Z,99617.22
2019-01-25T17:15:34.695Z,99619.78
2019-01-25T17:18:03.375Z,99620.34
2019-01-25T17:20:32.281Z,99618.29
2019-01-25T17:23:04.873Z,99621.48
2019-01-25T17:25:32.012Z,99620.25
2019-01-25T17:27:59.440Z,99620.77
2019-01-25T17:30:29.482Z,99616.24
2019-01-25T17:32:58.057Z,99623.09
2019-01-25T17:35:25.112Z,99618.15
2019-01-25T17:37:52.168Z,99621.03
2019-01-25T17:40:19.208Z,99629.03
2019-01-25T17:42:46.646Z,99627.31
2019-01-25T17:45:14.776Z,99633.16
2019-01-25T17:47:42.091Z,99631.33
2019-01-25T17:50:09.083Z,99633.12
2019-01-25T17:52:36.104Z,99630.23
2019-01-25T17:55:03.168Z,99628.33
2019-01-25T17:57:32.332Z,99622.05
2019-01-25T18:00:01.353Z,99625.75
2019-01-25T18:02:28.770Z,99614.63
2019-01-25T18:04:55.766Z,99608.12
2019-01-25T18:07:22.791Z,99611.38
2019-01-25T18:09:49.869Z,99613.77
2019-01-25T18:12:17.024Z,99616.73
2019-01-25T18:14:49.227Z,99623.22
2019-01-25T18:17:13.509Z,99635.77
2019-01-25T18:19:41.936Z,99637.18
2019-01-25T18:22:11.628Z,99629.53
2019-01-25T18:24:40.976Z,99635.45
2019-01-25T18:27:09.444Z,99626.76
2019-01-25T18:32:34.041Z,99627.66
2019-01-25T18:46:01.227Z,99618.33
2019-01-25T18:48:34.781Z,99615.80
2019-01-25T18:51:02.732Z,99614.55
2019-01-25T18:53:37.413Z,99601.24
2019-01-25T18:56:05.807Z,99600.52
2019-01-25T18:58:34.801Z,99592.22
2019-01-25T19:01:02.317Z,99590.62
2019-01-25T19:03:29.373Z,99579.08
2019-01-25T19:05:56.441Z,99579.98
2019-01-25T19:08:23.668Z,99579.38
2019-01-25T19:10:57.248Z,99576.16
2019-01-25T19:13:27.699Z,99567.14
2019-01-25T19:15:55.665Z,99573.97
2019-01-25T19:18:22.948Z,99568.70
2019-01-25T19:20:50.039Z,99565.81
2019-01-25T19:23:17.123Z,99564.92
2019-01-25T19:25:44.103Z,99562.45
2019-01-25T19:28:11.449Z,99559.26
2019-01-25T19:30:48.682Z,99553.45
2019-01-25T19:33:30.831Z,99539.22
2019-01-25T19:36:29.109Z,99534.16
2019-01-25T19:44:08.383Z,99524.92
2019-01-25T19:49:26.751Z,99487.17
2019-01-25T19:51:56.615Z,99521.11
2019-01-25T19:54:26.619Z,99517.14
2019-01-25T19:59:32.746Z,99502.81
2019-01-25T20:02:09.329Z,99499.64
2019-01-25T20:04:36.873Z,99500.80
2019-01-25T20:07:05.795Z,99494.59
2019-01-25T20:10:04.488Z,99486.69
2019-01-25T20:15:01.325Z,99485.01
2019-01-25T20:17:31.886Z,99486.62
2019-01-25T20:20:03.495Z,99487.78
2019-01-25T20:22:35.867Z,99485.40
2019-01-25T20:25:02.884Z,99471.34
2019-01-25T20:27:32.902Z,99478.38
2019-01-25T20:30:00.513Z,99482.73
2019-01-25T20:32:31.755Z,99480.39
2019-01-25T20:34:59.264Z,99472.91
2019-01-25T20:37:30.063Z,99469.70
2019-01-25T20:42:51.338Z,99455.53
2019-01-25T20:45:29.717Z,99448.23
2019-01-25T20:50:39.467Z,99442.50
2019-01-25T20:53:06.776Z,99442.75
2019-01-25T20:55:37.734Z,99434.48
2019-01-25T20:58:05.342Z,99430.51
2019-01-25T21:00:32.433Z,99410.91
2019-01-25T21:03:00.840Z,99438.00
2019-01-25T21:05:29.905Z,99431.84
2019-01-25T21:07:56.985Z,99422.64
2019-01-25T21:10:24.784Z,99416.14
2019-01-25T21:12:54.522Z,99409.95
2019-01-25T21:15:21.497Z,99405.30
2019-01-25T21:17:49.791Z,99399.66
2019-01-25T21:20:16.766Z,99394.55
2019-01-25T21:22:43.899Z,99391.72
2019-01-25T21:25:10.897Z,99386.38
2019-01-25T21:27:37.900Z,99384.22
2019-01-25T21:30:04.917Z,99387.69
2019-01-25T21:32:31.775Z,99379.67
2019-01-25T21:34:58.703Z,99383.77
2019-01-25T21:37:25.664Z,99380.70
2019-01-25T21:39:53.060Z,99381.31
2019-01-25T21:42:19.946Z,99380.99
2019-01-25T21:44:47.201Z,99387.48
2019-01-25T21:47:14.540Z,99377.78
2019-01-25T21:49:41.519Z,99359.88
2019-01-25T21:52:09.794Z,99359.20
2019-01-25T22:08:45.203Z,99329.80
2019-01-25T22:22:05.412Z,99317.80
2019-01-25T22:24:32.763Z,99313.34
2019-01-25T22:26:59.749Z,99309.48
2019-01-25T22:32:05.110Z,99319.38
2019-01-25T22:57:13.645Z,99280.25
2019-01-25T22:59:41.119Z,99280.50
2019-01-25T23:02:08.383Z,99275.71
2019-01-25T23:08:07.834Z,99276.44
2019-01-25T23:09:46.061Z,99274.16
2019-01-25T23:30:30.113Z,99246.03
2019-01-25T23:36:00.703Z,99242.73
2019-01-25T23:41:02.276Z,99229.55
2019-01-25T23:55:16.432Z,99212.09
